sensor_id;sensor_type;location;lat;lon;timestamp;temperature;humidity
12442;DHT22;6285;48.804;9.220;2023-03-19T05:20:30;11.10;99.90
12442;DHT22;6285;48.804;9.220;2023-03-19T05:37:41;10.90;99.90
12442;DHT22;6285;48.804;9.220;2023-03-19T05:45:04;10.90;99.90
12442;DHT22;6285;48.804;9.220;2023-03-19T05:54:55;10.90;99.90
12442;DHT22;6285;48.804;9.220;2023-03-19T06:04:43;11.10;99.90
12442;DHT22;6285;48.804;9.220;2023-03-19T06:12:07;11.00;99.90
12442;DHT22;6285;48.804;9.220;2023-03-19T06:29:17;11.20;99.90
12442;DHT22;6285;48.804;9.220;2023-03-19T06:46:30;11.00;99.90
12442;DHT22;6285;48.804;9.220;2023-03-19T06:51:24;11.10;99.90
12442;DHT22;6285;48.804;9.220;2023-03-19T07:03:42;12.30;99.90
12442;DHT22;6285;48.804;9.220;2023-03-19T07:06:09;11.30;99.90
12442;DHT22;6285;48.804;9.220;2023-03-19T07:11:04;11.40;99.90
12442;DHT22;6285;48.804;9.220;2023-03-19T07:13:32;11.50;99.90
12442;DHT22;6285;48.804;9.220;2023-03-19T07:20:54;11.70;99.90
12442;DHT22;6285;48.804;9.220;2023-03-19T07:38:05;11.60;99.90
12442;DHT22;6285;48.804;9.220;2023-03-19T07:55:17;12.30;99.90
12442;DHT22;6285;48.804;9.220;2023-03-19T08:00:11;12.10;99.90
12442;DHT22;6285;48.804;9.220;2023-03-19T08:05:07;12.10;99.90
12442;DHT22;6285;48.804;9.220;2023-03-19T08:07:34;11.90;99.90
12442;DHT22;6285;48.804;9.220;2023-03-19T08:12:30;12.10;99.90
12442;DHT22;6285;48.804;9.220;2023-03-19T08:22:20;12.40;99.90
12442;DHT22;6285;48.804;9.220;2023-03-19T08:27:14;12.60;99.90
12442;DHT22;6285;48.804;9.220;2023-03-19T08:29:42;12.50;99.90
12442;DHT22;6285;48.804;9.220;2023-03-19T08:32:09;12.60;99.90
12442;DHT22;6285;48.804;9.220;2023-03-19T08:46:53;12.50;99.90
12442;DHT22;6285;48.804;9.220;2023-03-19T08:59:13;13.40;99.90
12442;DHT22;6285;48.804;9.220;2023-03-19T09:04:09;16.40;99.90
12442;DHT22;6285;48.804;9.220;2023-03-19T09:09:03;14.30;99.90
12442;DHT22;6285;48.804;9.220;2023-03-19T09:13:57;14.30;99.90
12442;DHT22;6285;48.804;9.220;2023-03-19T09:21:20;15.20;99.90
12442;DHT22;6285;48.804;9.220;2023-03-19T09:31:09;17.60;99.90
12442;DHT22;6285;48.804;9.220;2023-03-19T09:36:03;17.90;99.90
12442;DHT22;6285;48.804;9.220;2023-03-19T09:38:31;18.30;99.90
12442;DHT22;6285;48.804;9.220;2023-03-19T09:41:07;18.00;99.90
12442;DHT22;6285;48.804;9.220;2023-03-19T09:43:44;17.70;99.90
12442;DHT22;6285;48.804;9.220;2023-03-19T09:46:18;17.80;99.90
12442;DHT22;6285;48.804;9.220;2023-03-19T09:48:50;18.20;99.90
12442;DHT22;6285;48.804;9.220;2023-03-19T09:51:22;18.00;99.90
12442;DHT22;6285;48.804;9.220;2023-03-19T09:53:56;18.60;99.90
12442;DHT22;6285;48.804;9.220;2023-03-19T09:56:24;19.40;99.90
12442;DHT22;6285;48.804;9.220;2023-03-19T10:01:26;21.40;99.40
12442;DHT22;6285;48.804;9.220;2023-03-19T10:04:15;20.70;99.20
12442;DHT22;6285;48.804;9.220;2023-03-19T10:09:23;17.90;99.90
12442;DHT22;6285;48.804;9.220;2023-03-19T10:12:06;18.40;99.90
12442;DHT22;6285;48.804;9.220;2023-03-19T10:15:00;18.70;99.90
12442;DHT22;6285;48.804;9.220;2023-03-19T10:17:31;19.70;99.30
12442;DHT22;6285;48.804;9.220;2023-03-19T10:20:02;20.50;98.40
12442;DHT22;6285;48.804;9.220;2023-03-19T10:22:33;21.90;97.00
12442;DHT22;6285;48.804;9.220;2023-03-19T10:25:03;21.80;95.40
12442;DHT22;6285;48.804;9.220;2023-03-19T10:27:31;23.20;93.80
12442;DHT22;6285;48.804;9.220;2023-03-19T10:29:58;23.90;92.70
12442;DHT22;6285;48.804;9.220;2023-03-19T10:32:32;24.40;91.30
12442;DHT22;6285;48.804;9.220;2023-03-19T10:35:07;24.60;90.10
12442;DHT22;6285;48.804;9.220;2023-03-19T10:37:36;23.40;90.30
12442;DHT22;6285;48.804;9.220;2023-03-19T10:40:13;24.40;89.70
12442;DHT22;6285;48.804;9.220;2023-03-19T10:42:55;23.50;88.20
12442;DHT22;6285;48.804;9.220;2023-03-19T10:45:28;24.00;89.80
12442;DHT22;6285;48.804;9.220;2023-03-19T10:47:57;24.40;88.60
12442;DHT22;6285;48.804;9.220;2023-03-19T10:50:29;24.10;87.20
12442;DHT22;6285;48.804;9.220;2023-03-19T10:53:03;23.80;87.00
12442;DHT22;6285;48.804;9.220;2023-03-19T10:55:32;22.80;86.60
12442;DHT22;6285;48.804;9.220;2023-03-19T10:58:04;23.00;85.60
12442;DHT22;6285;48.804;9.220;2023-03-19T11:00:32;23.90;85.00
12442;DHT22;6285;48.804;9.220;2023-03-19T11:05:30;21.70;79.70
12442;DHT22;6285;48.804;9.220;2023-03-19T11:07:59;23.60;81.00
12442;DHT22;6285;48.804;9.220;2023-03-19T11:10:28;22.40;83.10
12442;DHT22;6285;48.804;9.220;2023-03-19T11:12:58;23.20;80.30
12442;DHT22;6285;48.804;9.220;2023-03-19T11:15:30;24.00;78.10
12442;DHT22;6285;48.804;9.220;2023-03-19T11:17:59;23.70;76.60
12442;DHT22;6285;48.804;9.220;2023-03-19T11:20:29;22.70;78.50
12442;DHT22;6285;48.804;9.220;2023-03-19T11:22:58;22.60;78.90
12442;DHT22;6285;48.804;9.220;2023-03-19T11:25:29;22.30;78.10
12442;DHT22;6285;48.804;9.220;2023-03-19T11:28:02;22.10;79.00
12442;DHT22;6285;48.804;9.220;2023-03-19T11:30:37;20.80;79.60
12442;DHT22;6285;48.804;9.220;2023-03-19T11:36:03;21.10;80.00
12442;DHT22;6285;48.804;9.220;2023-03-19T11:38:37;20.80;81.80
12442;DHT22;6285;48.804;9.220;2023-03-19T11:41:11;21.10;81.50
12442;DHT22;6285;48.804;9.220;2023-03-19T11:43:53;20.80;82.70
12442;DHT22;6285;48.804;9.220;2023-03-19T11:46:36;20.50;83.30
12442;DHT22;6285;48.804;9.220;2023-03-19T11:49:17;20.20;83.70
12442;DHT22;6285;48.804;9.220;2023-03-19T11:51:50;19.20;84.70
12442;DHT22;6285;48.804;9.220;2023-03-19T11:54:31;19.30;85.80
12442;DHT22;6285;48.804;9.220;2023-03-19T11:57:09;19.80;85.60
12442;DHT22;6285;48.804;9.220;2023-03-19T11:59:48;19.80;85.30
12442;DHT22;6285;48.804;9.220;2023-03-19T12:02:40;19.90;84.60
12442;DHT22;6285;48.804;9.220;2023-03-19T12:05:19;20.30;84.60
12442;DHT22;6285;48.804;9.220;2023-03-19T12:07:58;19.30;82.90
12442;DHT22;6285;48.804;9.220;2023-03-19T12:10:55;19.70;83.60
12442;DHT22;6285;48.804;9.220;2023-03-19T12:13:36;19.60;81.60
12442;DHT22;6285;48.804;9.220;2023-03-19T12:16:12;19.70;81.90
12442;DHT22;6285;48.804;9.220;2023-03-19T12:19:05;21.30;84.60
12442;DHT22;6285;48.804;9.220;2023-03-19T12:21:47;20.00;82.40
12442;DHT22;6285;48.804;9.220;2023-03-19T12:24:22;19.50;82.20
12442;DHT22;6285;48.804;9.220;2023-03-19T12:26:58;19.80;82.40
12442;DHT22;6285;48.804;9.220;2023-03-19T12:29:32;20.00;83.00
12442;DHT22;6285;48.804;9.220;2023-03-19T12:32:24;20.10;82.30
12442;DHT22;6285;48.804;9.220;2023-03-19T12:34:56;20.30;81.90
12442;DHT22;6285;48.804;9.220;2023-03-19T12:37:27;20.30;81.30
12442;DHT22;6285;48.804;9.220;2023-03-19T12:40:10;20.00;81.50
12442;DHT22;6285;48.804;9.220;2023-03-19T12:42:40;19.80;82.30
12442;DHT22;6285;48.804;9.220;2023-03-19T12:45:23;19.70;82.60
12442;DHT22;6285;48.804;9.220;2023-03-19T12:47:56;19.40;84.10
12442;DHT22;6285;48.804;9.220;2023-03-19T12:50:26;19.80;83.70
12442;DHT22;6285;48.804;9.220;2023-03-19T12:52:57;20.10;83.10
12442;DHT22;6285;48.804;9.220;2023-03-19T12:55:32;20.20;82.60
12442;DHT22;6285;48.804;9.220;2023-03-19T12:58:04;20.30;83.40
12442;DHT22;6285;48.804;9.220;2023-03-19T13:00:34;19.90;86.00
12442;DHT22;6285;48.804;9.220;2023-03-19T13:03:06;19.50;86.80
12442;DHT22;6285;48.804;9.220;2023-03-19T13:05:39;19.20;88.00
12442;DHT22;6285;48.804;9.220;2023-03-19T13:08:13;19.00;88.60
12442;DHT22;6285;48.804;9.220;2023-03-19T13:13:24;18.50;90.20
12442;DHT22;6285;48.804;9.220;2023-03-19T13:15:56;18.20;90.90
12442;DHT22;6285;48.804;9.220;2023-03-19T13:18:33;17.90;91.60
12442;DHT22;6285;48.804;9.220;2023-03-19T13:21:12;17.60;92.30
12442;DHT22;6285;48.804;9.220;2023-03-19T13:31:20;16.20;99.90
12442;DHT22;6285;48.804;9.220;2023-03-19T13:33:58;16.10;99.90
12442;DHT22;6285;48.804;9.220;2023-03-19T13:36:27;16.20;99.90
12442;DHT22;6285;48.804;9.220;2023-03-19T13:41:49;16.40;99.90
12442;DHT22;6285;48.804;9.220;2023-03-19T13:44:34;16.40;99.90
12442;DHT22;6285;48.804;9.220;2023-03-19T13:47:36;16.60;99.90
12442;DHT22;6285;48.804;9.220;2023-03-19T13:50:22;16.90;99.90
12442;DHT22;6285;48.804;9.220;2023-03-19T13:52:51;16.90;99.90
12442;DHT22;6285;48.804;9.220;2023-03-19T13:55:49;16.90;99.90
12442;DHT22;6285;48.804;9.220;2023-03-19T13:58:19;16.90;99.90
12442;DHT22;6285;48.804;9.220;2023-03-19T14:01:05;17.00;99.90
12442;DHT22;6285;48.804;9.220;2023-03-19T14:03:32;17.00;99.90
12442;DHT22;6285;48.804;9.220;2023-03-19T14:06:02;17.00;99.90
12442;DHT22;6285;48.804;9.220;2023-03-19T14:08:40;16.90;99.90
12442;DHT22;6285;48.804;9.220;2023-03-19T14:11:08;16.20;99.90
12442;DHT22;6285;48.804;9.220;2023-03-19T14:13:39;16.20;99.90
12442;DHT22;6285;48.804;9.220;2023-03-19T14:16:14;16.20;99.90
12442;DHT22;6285;48.804;9.220;2023-03-19T14:21:14;16.20;99.90
12442;DHT22;6285;48.804;9.220;2023-03-19T14:23:51;16.40;99.90
12442;DHT22;6285;48.804;9.220;2023-03-19T14:26:19;16.40;99.90
12442;DHT22;6285;48.804;9.220;2023-03-19T14:28:58;16.60;99.90
12442;DHT22;6285;48.804;9.220;2023-03-19T14:31:38;16.80;99.90
12442;DHT22;6285;48.804;9.220;2023-03-19T14:34:17;16.80;99.90
12442;DHT22;6285;48.804;9.220;2023-03-19T14:36:49;16.80;99.90
12442;DHT22;6285;48.804;9.220;2023-03-19T14:39:20;16.80;99.90
12442;DHT22;6285;48.804;9.220;2023-03-19T14:41:50;16.80;99.90
12442;DHT22;6285;48.804;9.220;2023-03-19T14:44:46;16.80;99.90
12442;DHT22;6285;48.804;9.220;2023-03-19T14:47:25;16.80;99.90
12442;DHT22;6285;48.804;9.220;2023-03-19T14:53:08;16.60;99.90
12442;DHT22;6285;48.804;9.220;2023-03-19T14:58:08;16.50;99.90
12442;DHT22;6285;48.804;9.220;2023-03-19T15:00:44;16.50;99.90
12442;DHT22;6285;48.804;9.220;2023-03-19T15:03:22;16.40;99.90
12442;DHT22;6285;48.804;9.220;2023-03-19T15:05:56;16.60;99.90
12442;DHT22;6285;48.804;9.220;2023-03-19T15:08:25;16.50;99.90
12442;DHT22;6285;48.804;9.220;2023-03-19T15:11:04;16.40;99.90
12442;DHT22;6285;48.804;9.220;2023-03-19T15:13:47;16.30;99.90
12442;DHT22;6285;48.804;9.220;2023-03-19T15:16:26;16.00;99.90
12442;DHT22;6285;48.804;9.220;2023-03-19T15:23:50;16.10;99.90
12442;DHT22;6285;48.804;9.220;2023-03-19T15:26:29;16.10;99.90
12442;DHT22;6285;48.804;9.220;2023-03-19T15:31:39;16.20;99.90
12442;DHT22;6285;48.804;9.220;2023-03-19T15:34:16;16.20;99.90
12442;DHT22;6285;48.804;9.220;2023-03-19T15:39:14;16.30;99.90
12442;DHT22;6285;48.804;9.220;2023-03-19T15:41:45;16.20;99.90
12442;DHT22;6285;48.804;9.220;2023-03-19T15:44:16;16.10;99.90
12442;DHT22;6285;48.804;9.220;2023-03-19T15:46:45;16.00;99.90
12442;DHT22;6285;48.804;9.220;2023-03-19T15:49:15;15.90;99.90
12442;DHT22;6285;48.804;9.220;2023-03-19T15:51:47;16.00;99.90
12442;DHT22;6285;48.804;9.220;2023-03-19T15:54:18;15.90;99.90
12442;DHT22;6285;48.804;9.220;2023-03-19T15:56:46;16.00;99.90
12442;DHT22;6285;48.804;9.220;2023-03-19T15:59:16;15.90;99.90
12442;DHT22;6285;48.804;9.220;2023-03-19T16:04:15;15.70;99.90
12442;DHT22;6285;48.804;9.220;2023-03-19T16:06:46;15.70;99.90
12442;DHT22;6285;48.804;9.220;2023-03-19T16:09:22;15.60;99.90
12442;DHT22;6285;48.804;9.220;2023-03-19T16:11:49;15.50;99.90
12442;DHT22;6285;48.804;9.220;2023-03-19T16:14:23;15.40;99.90
12442;DHT22;6285;48.804;9.220;2023-03-19T16:16:51;15.30;99.90
12442;DHT22;6285;48.804;9.220;2023-03-19T16:19:32;15.20;99.90
12442;DHT22;6285;48.804;9.220;2023-03-19T16:22:01;15.00;99.90
12442;DHT22;6285;48.804;9.220;2023-03-19T16:24:32;14.70;99.90
12442;DHT22;6285;48.804;9.220;2023-03-19T16:27:02;14.50;99.90
12442;DHT22;6285;48.804;9.220;2023-03-19T16:29:34;14.10;99.90
12442;DHT22;6285;48.804;9.220;2023-03-19T16:32:14;14.00;99.90
12442;DHT22;6285;48.804;9.220;2023-03-19T16:34:44;14.40;99.90
12442;DHT22;6285;48.804;9.220;2023-03-19T16:37:32;13.60;99.90
12442;DHT22;6285;48.804;9.220;2023-03-19T16:40:02;13.50;99.90
12442;DHT22;6285;48.804;9.220;2023-03-19T16:42:37;13.40;99.90
12442;DHT22;6285;48.804;9.220;2023-03-19T16:45:20;13.30;99.90
12442;DHT22;6285;48.804;9.220;2023-03-19T16:47:48;13.00;99.90
12442;DHT22;6285;48.804;9.220;2023-03-19T16:50:16;12.90;99.90
12442;DHT22;6285;48.804;9.220;2023-03-19T16:55:18;12.70;99.90
12442;DHT22;6285;48.804;9.220;2023-03-19T17:00:14;12.50;99.90
12442;DHT22;6285;48.804;9.220;2023-03-19T17:05:12;12.60;99.90
12442;DHT22;6285;48.804;9.220;2023-03-19T17:10:08;12.50;99.90
12442;DHT22;6285;48.804;9.220;2023-03-19T21:13:12;11.60;99.90
12442;DHT22;6285;48.804;9.220;2023-03-19T21:23:09;11.80;99.90
12442;DHT22;6285;48.804;9.220;2023-03-19T23:17:11;11.60;99.90
12442;DHT22;6285;48.804;9.220;2023-03-19T23:22:13;11.60;99.90
12442;DHT22;6285;48.804;9.220;2023-03-19T23:27:19;11.40;99.90
12442;DHT22;6285;48.804;9.220;2023-03-19T23:42:04;11.40;99.90
12442;DHT22;6285;48.804;9.220;2023-03-19T23:44:35;11.20;99.90
12442;DHT22;6285;48.804;9.220;2023-03-19T23:49:31;11.30;99.90
12442;DHT22;6285;48.804;9.220;2023-03-19T23:51:58;11.30;99.90
12442;DHT22;6285;48.804;9.220;2023-03-19T23:54:28;11.30;99.90
12442;DHT22;6285;48.804;9.220;2023-03-19T23:56:55;11.40;99.90
